• Join FlightAware (Why Join?)
  • Login
  • US Flag 
07:48AM EST


 

Airport Tracker/Info


-or-


 

Live Flight TrackerFlight Track Log ✈ ASQ5941 ✈ 14-Apr-2013 ✈ KORD - KAVP

Flight Track Log - Related Links

Times and Time Zones

All times are in EDT time to prevent confusion due to time zone crossing. See the ASQ5941 flight status page for this flight to view local times or setup timezone preferences in your user account.

Time Position Orientation Groundspeed Altitude Reporting Facility
EDT Latitude Longitude Course Direction KTS MPH feet Rate Location/Type
03:12PM 42.0167 -87.8833 80° East 167 192 1,800  Level Chicago TRACON
03:13PM 42.0333 -87.8000 75° East 226 260 3,200 1,320 Climbing Chicago TRACON
03:14PM 42.0667 -87.7167 62° Northeast 288 331 4,500 1,800 Climbing Chicago TRACON
03:15PM 42.0667 -87.6167 90° East 296 341 6,700 1,860 Climbing Chicago TRACON
03:17PM 42.0909 -87.1046 77° East  Level FlightAware Approximate
03:18PM 42.1072 -86.9426 80° East  Level FlightAware Approximate
03:18PM 42.0894 -87.3600 83° East 309 356 10,800  Level Chicago Center
03:19PM 42.1017 -87.2033 84° East 347 399 12,600 1,260 Climbing Chicago Center
03:20PM 42.1122 -87.0658 84° East 367 422 13,400 780 Climbing Chicago Center
03:21PM 42.1169 -86.9144 88° East 402 463 14,200 840 Climbing Chicago Center
03:22PM 42.1231 -86.7608 87° East 411 473 15,200 1,080 Climbing Chicago Center
03:23PM 42.1292 -86.6150 87° East 413 475 16,500 1,380 Climbing Chicago Center
03:24PM 42.1350 -86.4319 87° East 408 470 18,100 1,320 Climbing Chicago Center
03:25PM 42.1386 -86.2819 88° East 403 464 19,300 1,200 Climbing Chicago Center
03:26PM 42.1436 -86.1294 87° East 405 466 20,600 1,200 Climbing Chicago Center
03:27PM 42.1436 -85.9753 90° East 410 472 21,900 1,200 Climbing Chicago Center
03:28PM 42.1414 -85.8050 91° East 409 471 23,200 1,080 Climbing Chicago Center
03:29PM 42.1400 -85.6506 91° East 415 478 24,200 1,020 Climbing Chicago Center
03:30PM 42.1378 -85.4956 91° East 416 479 25,300 960 Climbing Chicago Center
03:31PM 42.1364 -85.3397 91° East 418 481 26,300 900 Climbing Chicago Center
03:31PM 42.1392 -85.2769 87° East 421 484 26,600 960 Climbing Cleveland Center
03:32PM 42.1350 -85.1197 92° East 421 484 27,700 1,080 Climbing Cleveland Center
03:33PM 42.1328 -84.9600 91° East 421 484 28,800 1,020 Climbing Cleveland Center
03:34PM 42.1283 -84.8056 92° East 423 487 29,800 960 Climbing Cleveland Center
03:35PM 42.1297 -84.6517 89° East 412 474 30,800 600 Climbing Cleveland Center
03:36PM 42.1250 -84.4889 92° East 419 482 31,000 60 Climbing Cleveland Center
03:37PM 42.1394 -84.3022 84° East 432 497 31,000  Level Cleveland Center
03:38PM 42.1781 -84.1333 73° East 460 529 31,000  Level Cleveland Center
03:39PM 42.2250 -83.9622 70° East 467 537 31,000  Level Cleveland Center
03:40PM 42.2300 -83.7831 88° East 472 543 31,000  Level Cleveland Center
03:41PM 42.2222 -83.6086 93° East 472 543 31,000  Level Cleveland Center
03:42PM 42.2139 -83.4456 94° East 479 551 31,000  Level Cleveland Center
03:43PM 42.2100 -83.2633 92° East 480 552 31,000  Level Cleveland Center
03:44PM 42.2017 -83.0833 94° East 480 552 31,000  Level Cleveland Center
03:45PM 42.1928 -82.9036 94° East 485 558 31,000  Level Cleveland Center
03:46PM 42.1861 -82.7214 93° East 485 558 31,000  Level Cleveland Center
03:47PM 42.1789 -82.5389 93° East 479 551 31,000  Level Cleveland Center
03:48PM 42.1672 -82.3536 95° East 485 558 31,000  Level Cleveland Center
03:49PM 42.1594 -82.1658 93° East 490 564 31,000  Level Cleveland Center
03:50PM 42.1497 -81.9611 94° East 497 572 31,000  Level Cleveland Center
03:51PM 42.1414 -81.7761 93° East 497 572 31,000  Level Cleveland Center
03:52PM 42.1306 -81.5883 94° East 497 572 31,000  Level Cleveland Center
03:53PM 42.1217 -81.4006 94° East 502 578 31,000  Level Cleveland Center
03:54PM 42.1083 -81.2128 95° East 502 578 31,000  Level Cleveland Center
03:55PM 42.0989 -81.0253 94° East 495 570 31,000  Level Cleveland Center
03:56PM 42.0867 -80.8575 96° East 500 575 31,000  Level Cleveland Center
03:57PM 42.0767 -80.6700 94° East 501 577 31,000  Level Cleveland Center
03:58PM 42.0642 -80.4853 95° East 496 571 31,000  Level Cleveland Center
03:59PM 42.0533 -80.3008 94° East 501 577 31,000  Level Cleveland Center
04:00PM 42.0425 -80.1106 94° East 506 582 31,000  Level Cleveland Center
04:01PM 42.0267 -79.9094 96° East 499 574 31,000  Level Cleveland Center
04:02PM 42.0131 -79.7253 96° East 503 579 31,000  Level Cleveland Center
04:03PM 42.0011 -79.5353 95° East 503 579 31,000  Level Cleveland Center
04:04PM 41.9867 -79.3483 96° East 503 579 31,000 -300 Level Cleveland Center
04:05PM 41.9719 -79.1617 96° East 503 579 30,400 -960 Descending Cleveland Center
04:06PM 41.9569 -78.9719 96° East 503 579 29,100 -1,440 Descending Cleveland Center
04:07PM 41.9314 -78.7856 100° East 503 579 27,600 -1,500 Descending Cleveland Center
04:08PM 41.9072 -78.5911 99° East 508 585 26,100 -1,500 Descending Cleveland Center
04:09PM 41.8808 -78.3967 100° East 519 597 24,600 -1,500 Descending Cleveland Center
04:10PM 41.8564 -78.2108 100° East 519 597 23,100 -840 Descending Cleveland Center
04:11PM 41.8317 -78.0306 100° East 514 592 23,000 -60 Descending Cleveland Center
04:13PM 41.7956 -77.7850 101° East 479 551 23,000  Level New York Center
04:14PM 41.7708 -77.6017 100° East 484 557 23,000  Level New York Center
04:15PM 41.7456 -77.4211 101° East 489 563 23,000  Level New York Center
04:16PM 41.7161 -77.2375 102° East 494 568 23,000 -120 Level New York Center
04:17PM 41.6906 -77.0544 101° East 494 568 22,800 -960 Descending New York Center
04:18PM 41.6644 -76.8769 101° East 494 568 21,100 -2,100 Descending New York Center
04:19PM 41.6442 -76.7392 101° East 488 562 18,700 -2,880 Descending New York Center
04:20PM 41.6161 -76.5533 101° East 471 542 15,400 -3,000 Descending New York Center
04:21PM 41.5908 -76.3847 101° East 432 497 12,600 -2,580 Descending New York Center
04:22PM 41.5719 -76.2528 101° East 380 437 10,400 -2,220 Descending New York Center
04:23PM 41.5464 -76.1289 105° East 355 409 8,300 -1,740 Descending New York Center
04:24PM 41.4956 -76.0528 132° Southeast 313 360 6,900 -1,440 Descending New York Center
04:25PM 41.4422 -75.9903 139° Southeast 287 330 5,400 -1,380 Descending New York Center
04:26PM 41.3881 -75.9392 145° Southeast 259 298 4,200 -720 Descending New York Center
04:27PM 41.3361 -75.8908 145° Southeast 241 277 4,000 -180 Descending New York Center
04:28PM 41.2858 -75.8458 146° Southeast 231 266 3,900 -420 Descending New York Center
04:29PM 41.2525 -75.7964 132° Southeast 204 235 3,200 -720 Descending New York Center